Tiempo atmosférico en la estación meteorológica de A Coruña Aeropuerto, A Coruña (98 m.)

Fecha
DESCASC
Temp. máxima en grados centígrados (hora)
DESCASC
Temp. mínima en grados centígrados (hora)
DESCASC
Temp. media en grados centígrados
DESCASC
Racha de viento máxima en m/sg (hora)
DESCASC
Velocidad máxima media en intervalos de 10 minutos(hora)
DESCASC
Precipitaciones diarias en mm
DESCASC
Precipitaciones de 00:00 a 06:00 en mm
DESCASC
Precipitaciones de 06:00 a 12:00 en mm
DESCASC
Precipitaciones de 12:00 a 18:00 en mm
DESCASC
Precipitaciones de 18:00 a 24:00 en mm
DESCASC
17-08-2017 26.3 (13:10) 19.3 (23:50) 22.8 10.28 (17:20) 6.11 (16:10) 0 0 0 0 0
16-08-2017 25.4 (17:40) 12.5 (06:30) 18.9 11.39 (19:00) 6.67 (19:10) 0 0 0 0 0
15-08-2017 21.4 (17:00) 16 (00:00) 18.7 7.22 (17:30) 4.72 (18:30) 0.1 0 0.1 0 0
14-08-2017 23.3 (16:40) 15.7 (06:20) 19.5 11.67 (13:10) 7.5 (13:10) 0 0 0 0 0
13-08-2017 28.5 (18:50) 12.1 (00:00) 20.3 5.83 (14:30) 3.61 (16:40) 0 0 0 0 0
12-08-2017 22.3 (19:40) 10.8 (00:00) 16.5 11.67 (16:00) 6.67 (16:10) 0 0 0 0 0
11-08-2017 22.9 (18:20) 9.9 (00:00) 16.4 12.5 (16:30) 6.94 (16:30) 0 0 0 0 0
10-08-2017 22.4 (16:50) 10.5 (00:00) 16.4 12.5 (16:00) 6.67 (14:40) 0 0 0 0 0
09-08-2017 19.8 (17:40) 13.4 (00:00) 16.6 11.67 (16:50) 6.94 (16:50) 1.9 1.9 0 0 0
08-08-2017 20.8 (17:00) 13.2 (00:00) 17 11.39 (15:20) 6.67 (15:20) 2.1 1 1.1 0 0
07-08-2017 19.6 (17:10) 16.1 (00:00) 17.9 10.28 (11:10) 6.11 (16:10) 0 0 0 0 0
06-08-2017 24 (16:10) 16.3 (00:00) 20.1 12.5 (17:10) 7.78 (15:30) 0 0 0 0 0
05-08-2017 21.6 (17:50) 15.7 (00:00) 18.7 11.67 (20:40) 7.5 (20:40) 0.8 0.8 0 0 0
04-08-2017 26.8 (14:00) 16.7 (00:00) 21.8 10.83 (06:00) 8.06 (06:20) 2.2 0 0 1.5 0.7
03-08-2017 25.1 (20:50) 17.6 (00:00) 21.4 10.28 (23:50) 6.94 (02:10) 0.9 0.1 0.8 0 0
02-08-2017 28.5 (17:10) 12.5 (00:00) 20.5 11.67 (17:50) 7.22 (18:00) 0 0 0 0 0
01-08-2017 21.8 (15:40) 12 (00:00) 16.9 8.33 (16:50) 5.28 (16:10) 0 0 0 0 0
31-07-2017 21.5 (14:10) 15.1 (00:00) 18.3 9.17 (16:40) 5.83 (16:40) 0 0 0 0 0
30-07-2017 21.8 (11:30) 15.1 (00:00) 18.4 12.5 (13:50) 7.5 (16:30) 1.3 1.3 0 0 0
29-07-2017 27.9 (16:00) 19 (00:00) 23.4 16.11 (16:00) 10.28 (15:20) 0 0 0 0 0
28-07-2017 25.2 (19:20) 15.4 (00:00) 20.3 7.78 (21:00) 5.28 (22:30) 0 0 0 0 0
27-07-2017 21.9 (13:10) 16.4 (00:00) 19.1 7.78 (07:20) 4.17 (14:50) 0.9 0 0 0.9 0
26-07-2017 23.2 (18:10) 16.3 (00:00) 19.8 8.89 (16:30) 5.28 (15:30) 0 0 0 0 0
25-07-2017 21.9 (16:00) 16.6 (00:00) 19.3 9.72 (17:10) 6.11 (18:40) 0 0 0 0 0
24-07-2017 20.4 (15:50) 16 (00:00) 18.2 8.89 (13:40) 5.28 (14:20) 0.6 0.1 0.5 0 0
23-07-2017 22.5 (16:30) 12.5 (00:00) 17.5 9.72 (18:40) 5.56 (17:40) 0 0 0 0 0
22-07-2017 21.3 (16:10) 15.7 (00:00) 18.5 9.72 (14:30) 5.83 (14:40) 0.8 0.1 0.7 0 0
21-07-2017 23.8 (16:20) 11.5 (00:00) 17.6 10.28 (18:40) 6.39 (18:40) 0 0 0 0 0
20-07-2017 20.7 (15:50) 15 (00:00) 17.9 8.33 (13:50) 5.56 (15:10) 0 0 0 0 0
19-07-2017 20.8 (15:40) 16.8 (00:00) 18.8 11.67 (04:20) 8.33 (04:20) 1.3 0 1.2 0.1 0

Gráficas

Temp. máximas Temp. mínimas Temp. medias Precipitaciones Rachas de viento máximas Velocidades máximas media en intervalos de 10 minutos

Datos horarios

Fecha y hora oficial Temperatura (ºC) Velocidad del viento (km/h) Dirección del viento Racha (km/h) Dirección de racha Precipitación (mm) Presión (hPa) Tendencia (hPa) Humedad (%)
2017-08-17 23:00:00 20.2 0 Calma 5 Sudoeste 0 1009.3 1.2 77
2017-08-17 22:00:00 20.7 3 Oeste 18 Noroeste 0 1008.8 0.8 75
2017-08-17 21:00:00 21.6 13 Noroeste 26 Noroeste 0 1008.4 0.6 72
2017-08-17 20:00:00 23.5 14 Noroeste 28 Noroeste 0 1008.1 -0.2 63
2017-08-17 19:00:00 24.9 17 Noroeste 30 Noroeste 0 1008 -0.3 58
2017-08-17 18:00:00 25.1 15 Noroeste 37 Noroeste 0 1007.8 -0.8 56
2017-08-17 17:00:00 24.4 19 Noroeste 35 Noroeste 0 1008.3 -0.5 60
2017-08-17 16:00:00 24.5 18 Noroeste 35 Norte 0 1008.3 -1.1 59
2017-08-17 15:00:00 25.4 14 Norte 26 Norte 0 1008.6 -1.3 58
2017-08-17 14:00:00 24.2 12 Nordeste 26 Sudoeste 0 1008.8 -1 63
2017-08-17 13:00:00 25.6 6 Sur 18 Sudeste 0 1009.4 -0.3 57
2017-08-17 12:00:00 23.2 6 Sudoeste 22 Sudoeste 0 1009.9 0.2 62
2017-08-17 11:00:00 22.2 12 Sur 22 Sur 0 1009.8 0.3 67
2017-08-17 10:00:00 21.2 13 Sur 32 Sur 0 1009.7 0 72
2017-08-17 09:00:00 20.3 6 Sur 15 Sur 0 1009.7 0.3 77
2017-08-17 08:00:00 19.9 7 Sur 13 Sur 0 1009.5 0.2 80
2017-08-17 07:00:00 20.1 4 Oeste 15 Oeste 0 1009.7 0.2 78
2017-08-17 06:00:00 20.5 7 Oeste 17 Oeste 0 1009.4 -0.4 76
2017-08-17 05:00:00 20.6 6 Sudoeste 13 Sudoeste 0 1009.3 -0.7 77
2017-08-17 04:00:00 20.8 5 Sudoeste 15 Sudoeste 0 1009.5 -0.9 76
2017-08-17 03:00:00 20.7 5 Sudoeste 13 Sudoeste 0 1009.8 -0.8 79
2017-08-17 02:00:00 20.7 5 Sur 13 Sudoeste 0 1010 -0.7 81
2017-08-17 01:00:00 21.2 8 Sudoeste 15 Sudoeste 0 1010.4 -0.1 78
2017-08-17 00:00:00 21.6 8 Oeste 17 Noroeste 0 1010.6 0.2 75
2017-08-16 23:00:00 21.6 11 Oeste 26 Oeste 0 1010.7 0.4 75
2017-08-16 22:00:00 21.3 8 Oeste 26 Noroeste 0 1010.5 0.3 77
2017-08-16 21:00:00 22 12 Noroeste 35 Oeste 0 1010.4 0.2 74
2017-08-16 20:00:00 23.2 20 Noroeste 39 Noroeste 0 1010.3 0.3 70
2017-08-16 19:00:00 24.1 22 Noroeste 41 Oeste 0 1010.2 -0.1 68
2017-08-16 18:00:00 24.3 23 Noroeste 33 Noroeste 0 1010.2 -0.3 68
2017-08-16 17:00:00 24 14 Noroeste 32 Norte 0 1010 -0.6 67
2017-08-16 16:00:00 23.7 15 Norte 28 Nordeste 0 1010.3 -0.4 65
2017-08-16 15:00:00 23.4 17 Nordeste 26 Nordeste 0 1010.5 -0.1 65
2017-08-16 14:00:00 23.6 14 Norte 24 Norte 0 1010.6 -0.3 62
2017-08-16 13:00:00 23 10 Norte 21 Sur 0 1010.7 -0.5 61
2017-08-16 12:00:00 23.4 10 Sur 21 Sur 0 1010.6 -0.2 59
2017-08-16 11:00:00 20.9 8 Sudeste 21 Sudeste 0 1010.9 0.5 68
2017-08-16 10:00:00 17.8 6 Sudeste 21 Sur 0 1011.2 1.2 82
2017-08-16 09:00:00 14.3 8 Sur 18 Sur 0 1010.8 0.9 91
2017-08-16 08:00:00 12.6 5 Sur 21 Sudeste 0 1010.4 0.5 96
2017-08-16 07:00:00 12.7 9 Sur 21 Sur 0 1010 0.1 97
2017-08-16 06:00:00 12.7 7 Sur 11 Sur 0 1009.9 -0.3 97
2017-08-16 05:00:00 13 6 Sur 11 Sur 0 1009.9 -0.7 96
2017-08-16 04:00:00 13.3 8 Sur 11 Sur 0 1009.9 -0.8 96
2017-08-16 03:00:00 13.7 6 Sur 13 Sur 0 1010.2 -0.5 95
2017-08-16 02:00:00 14 4 Sur 8 Sur 0 1010.6 -0.3 93
2017-08-16 01:00:00 15.2 3 Sudoeste 8 Sudoeste 0 1010.7 0.4 90
2017-08-16 00:00:00 16.1 0 Calma 4 Sur 0 1010.7 0.7 88
2017-08-15 23:00:00 16.8 0 Calma 11 Noroeste 0 1010.9 1.1 86
2017-08-15 22:00:00 18 6 Norte 21 Noroeste 0 1010.3 1.1 81
2017-08-15 21:00:00 18.7 11 Norte 26 Norte 0 1010 0.7 77
2017-08-15 20:00:00 19.5 13 Norte 26 Norte 0 1009.8 0.6 74
2017-08-15 19:00:00 20.2 14 Norte 26 Norte 0 1009.2 -0.1 71
2017-08-15 18:00:00 20.6 12 Norte 26 Norte 0 1009.3 0.1 69
2017-08-15 17:00:00 21 15 Nordeste 24 Nordeste 0 1009.2 -0.3 70
2017-08-15 16:00:00 20.7 15 Nordeste 22 Norte 0 1009.3 -0.1 68
2017-08-15 15:00:00 20.1 13 Norte 22 Norte 0 1009.2 0.3 73
2017-08-15 14:00:00 19.3 6 Norte 17 Nordeste 0 1009.5 0.8 78
2017-08-15 13:00:00 18.4 4 Norte 13 Noroeste 0 1009.4 1.2 85
2017-08-15 12:00:00 17.6 0 Calma 15 Norte 0.1 1008.9 0.9 90
2017-08-15 11:00:00 17.1 5 Norte 13 Oeste 0 1008.7 1.4 95
2017-08-15 10:00:00 16.8 2 Oeste 11 Noroeste 0 1008.2 1.4 96
2017-08-15 09:00:00 16.4 6 Noroeste 18 Norte 0 1008 1.5 97
2017-08-15 08:00:00 16.9 9 Norte 18 Sur 0 1007.3 0.8 96
2017-08-15 07:00:00 17 4 Sur 5 Sudeste 0 1006.8 0.6 92
2017-08-15 06:00:00 16.6 0 Calma 5 Sur 0 1006.5 0 94
2017-08-15 05:00:00 17.3 0 Calma 5 Noroeste 0 1006.5 -0.1 92
2017-08-15 04:00:00 17.6 0 Calma 8 Noroeste 0 1006.2 -0.2 92
2017-08-15 03:00:00 18 3 Noroeste 8 Noroeste 0 1006.5 0.1 90
2017-08-15 02:00:00 18.5 2 Noroeste 15 Noroeste 0 1006.6 0.5 89
2017-08-15 01:00:00 18.9 8 Noroeste 18 Noroeste 0 1006.4 1.1 87
2017-08-15 00:00:00 19.2 4 Noroeste 17 Norte 0 1006.4 1.3 87
2017-08-14 23:00:00 19.3 7 Norte 15 Noroeste 0 1006.1 1.4 87
2017-08-14 22:00:00 19.5 8 Norte 18 Norte 0 1005.3 0.7 85
2017-08-14 21:00:00 19.8 8 Noroeste 21 Noroeste 0 1005.1 0.8 83
2017-08-14 20:00:00 20 9 Norte 24 Noroeste 0 1004.7 0.8 83
2017-08-14 19:00:00 20.5 16 Noroeste 26 Norte 0 1004.6 0.9 81
2017-08-14 18:00:00 21.3 13 Noroeste 30 Norte 0 1004.3 0.9 78
2017-08-14 17:00:00 22.7 17 Oeste 30 Noroeste 0 1003.9 0.7 71
2017-08-14 16:00:00 22.6 15 Noroeste 28 Noroeste 0 1003.7 0.8 69
2017-08-14 15:00:00 22.5 17 Noroeste 28 Noroeste 0 1003.4 1.3 70
2017-08-14 14:00:00 21.8 17 Noroeste 42 Oeste 0 1003.2 1.8 74
2017-08-14 13:00:00 22.6 23 Oeste 35 Oeste 0 1002.9 1.6 70
2017-08-14 12:00:00 21.9 3 Noroeste 17 Norte 0 1002.1 1 69
2017-08-14 11:00:00 20.9 10 Norte 17 Norte 0 1001.4 0.6 71
2017-08-14 10:00:00 20.2 0 Calma 11 Sur 0 1001.3 0.9 76
2017-08-14 09:00:00 16.9 5 Sur 9 Sur 0 1001.1 0.8 88
2017-08-14 08:00:00 15.8 5 Sur 22 Sudeste 0 1000.8 0.2 91
2017-08-14 07:00:00 15.8 3 Sur 18 Sudeste 0 1000.4 -0.4 91
2017-08-14 06:00:00 16.1 7 Sur 11 Sur 0 1000.3 -0.8 89
2017-08-14 05:00:00 16.5 7 Sur 11 Sur 0 1000.6 -1.1 91
2017-08-14 04:00:00 17.4 4 Sudeste -- -- 0 1000.8 -1.2 86
2017-08-14 03:00:00 18.1 3 Sur 5 Sur 0 1001.1 -1.3 85
2017-08-14 02:00:00 19.1 2 Norte 5 Noroeste 0 1001.7 -0.6 78
2017-08-14 01:00:00 20.1 0 Calma 5 Nordeste 0 1002 -0.3 75
2017-08-14 00:00:00 20.4 0 Calma 17 Sur 0 1002.4 0.2 73
2017-08-13 23:00:00 21.1 0 Calma 5 Norte 0 1002.3 0 70
2017-08-13 22:00:00 22.2 4 Norte 17 Norte 0 1002.3 -0.3 65
2017-08-13 21:00:00 24.3 9 Norte 17 Norte 0 1002.2 -0.6 59
2017-08-13 20:00:00 26.8 9 Norte 21 Norte 0 1002.3 -1.1 52
2017-08-13 19:00:00 28.1 12 Norte 21 Norte 0 1002.6 -1.2 48
2017-08-13 18:00:00 26.9 6 Norte 21 Norte 0 1002.8 -1.7 51
2017-08-13 17:00:00 27.6 12 Norte 21 Norte 0 1003.4 -1.8 48
2017-08-13 16:00:00 27.4 10 Norte 21 Norte 0 1003.8 -2 48
2017-08-13 15:00:00 25.9 10 Norte 21 Norte 0 1004.5 -2.2 51
2017-08-13 14:00:00 24.8 10 Norte 18 Norte 0 1005.2 -1.7 53
2017-08-13 13:00:00 23.2 6 Norte 17 Norte 0 1005.8 -1.4 56
2017-08-13 12:00:00 21.5 6 Norte 13 Norte 0 1006.7 -0.6 55
2017-08-13 11:00:00 18.9 2 Norte 5 Noroeste 0 1006.9 -0.3 69
2017-08-13 10:00:00 16.3 0 Calma 18 Sur 0 1007.2 0 83
2017-08-13 09:00:00 13.1 6 Sur 11 Sur 0 1007.3 -0.3 93
2017-08-13 08:00:00 12.2 3 Sur 13 Sur 0 1007.2 -0.7 96
2017-08-13 07:00:00 12.4 5 Sur 13 Sur 0 1007.2 -1 96
2017-08-13 06:00:00 13 3 Sur 8 Sur 0 1007.6 -1.2 95
2017-08-13 05:00:00 13.4 -- -- -- -- 0 1007.9 -1.5 91
2017-08-13 04:00:00 14.7 0 Calma 8 Norte 0 1008.2 -1.4 88
2017-08-13 03:00:00 15.7 3 Noroeste 8 Noroeste 0 1008.8 -1 86
2017-08-13 02:00:00 16.3 3 Noroeste 13 Norte 0 1009.4 -0.4 83
2017-08-13 01:00:00 16.7 4 Noroeste 11 Norte 0 1009.6 0.1 81
2017-08-13 00:00:00 17.6 5 Norte 17 Noroeste 0 1009.8 0.3 79
2017-08-12 23:00:00 18 8 Norte 17 Norte 0 1009.8 0.3 78
2017-08-12 22:00:00 18.4 6 Noroeste 18 Norte 0 1009.5 -0.2 76
2017-08-12 21:00:00 20.4 8 Norte 26 Norte 0 1009.5 -0.4 68
2017-08-12 20:00:00 21.9 16 Norte 26 Norte 0 1009.5 -0.5 64
2017-08-12 19:00:00 21.7 12 Norte 35 Norte 0 1009.7 -0.7 67
2017-08-12 18:00:00 21.4 19 Norte 41 Norte 0 1009.9 -0.7 68
2017-08-12 17:00:00 21.1 22 Norte 39 Norte 0 1010 -1 69
2017-08-12 16:00:00 21.3 22 Norte 42 Norte 0 1010.4 -1 68
2017-08-12 15:00:00 21.4 21 Norte 32 Norte 0 1010.6 -1.1 68
2017-08-12 14:00:00 21.2 16 Norte 28 Norte 0 1011 -0.5 68
2017-08-12 13:00:00 20.7 11 Norte 21 Norte 0 1011.4 -0.2 67
2017-08-12 12:00:00 19.8 6 Norte 15 Norte 0 1011.7 0.3 66
2017-08-12 11:00:00 17.9 3 Nordeste 9 Nordeste 0 1011.5 0.5 73
2017-08-12 10:00:00 16.1 0 Calma 5 Sur 0 1011.6 0.8 80
2017-08-12 09:00:00 12.9 0 Calma 11 Sur 0 1011.4 0.7 90
2017-08-12 08:00:00 11 6 Sur 18 Sudeste 0 1011 -0.2 96
2017-08-12 07:00:00 11.3 4 Sur 8 Sur 0 1010.8 -0.6 96
2017-08-12 06:00:00 11.9 6 Sur 8 Sur 0 1010.7 -1.2 95
2017-08-12 05:00:00 12.3 3 Sur 8 Sur 0 1011.2 -0.8 93
2017-08-12 04:00:00 14.1 0 Calma 4 Noroeste 0 1011.4 -0.5 86
2017-08-12 03:00:00 14.8 2 Noroeste 8 Norte 0 1011.9 -0.3 84
2017-08-12 02:00:00 15.3 3 Norte 13 Norte 0 1012 -0.1 82
2017-08-12 01:00:00 16.3 5 Norte 17 Norte 0 1011.9 0.5 78
2017-08-12 00:00:00 16.9 8 Norte 18 Norte 0 1012.2 0.8 77
2017-08-11 23:00:00 17.9 10 Norte 22 Noroeste 0 1012.1 0.7 74
2017-08-11 22:00:00 18.9 14 Norte 22 Norte 0 1011.4 -0.2 70
2017-08-11 21:00:00 20.6 15 Norte 22 Norte 0 1011.4 -0.4 64
2017-08-11 20:00:00 20.9 11 Norte 32 Norte 0 1011.4 -0.5 63
2017-08-11 19:00:00 20.6 21 Norte 33 Norte 0 1011.6 -0.6 65
2017-08-11 18:00:00 22.3 20 Norte 33 Norte 0 1011.8 -0.6 60
2017-08-11 17:00:00 21.6 19 Norte 45 Norte 0 1011.9 -0.7 62
2017-08-11 16:00:00 20.8 24 Norte 42 Norte 0 1012.2 -0.9 65
2017-08-11 15:00:00 22 16 Norte 30 Norte 0 1012.4 -0.9 61
2017-08-11 14:00:00 22.3 12 Norte 22 Norte 0 1012.6 -0.8 56
2017-08-11 13:00:00 21.3 13 Norte 24 Norte 0 1013.1 -0.3 60
2017-08-11 12:00:00 19.9 8 Nordeste 18 Nordeste 0 1013.3 0.1 64
2017-08-11 11:00:00 17.7 2 Norte 13 Norte 0 1013.4 0.2 73
2017-08-11 10:00:00 14.9 0 Calma 5 Sudeste 0 1013.4 0.3 83
2017-08-11 09:00:00 11.1 3 Sur 8 Sur 0 1013.2 0.1 93
2017-08-11 08:00:00 10.3 4 Sudoeste 11 Sur 0 1013.2 -0.3 95
2017-08-11 07:00:00 10.5 2 Sur 8 Sur 0 1013.1 -0.7 95
2017-08-11 06:00:00 10.9 6 Sur 11 Sur 0 1013.1 -1.4 95
2017-08-11 05:00:00 12.2 0 Calma 11 Norte 0 1013.5 -1.5 90
2017-08-11 04:00:00 14.4 5 Norte 13 Norte 0 1013.8 -1.5 84
2017-08-11 03:00:00 14.7 5 Norte 11 Norte 0 1014.5 -0.9 82
2017-08-11 02:00:00 15.4 4 Norte 15 Norte 0 1015 -0.4 80
2017-08-11 01:00:00 15.8 7 Norte 18 Norte 0 1015.3 0.3 79
2017-08-11 00:00:00 16.2 9 Norte 18 Norte 0 1015.4 0.6 77
2017-08-10 23:00:00 16.8 10 Norte 24 Norte 0 1015.4 0.7 74
2017-08-10 22:00:00 17.6 13 Norte 32 Norte 0 1015 0.1 70
2017-08-10 21:00:00 19.1 19 Nordeste 35 Norte 0 1014.8 -0.3 63
2017-08-10 20:00:00 20.2 20 Nordeste 39 Nordeste 0 1014.7 -0.6 58
2017-08-10 19:00:00 21 23 Nordeste 41 Nordeste 0 1014.9 -0.9 55
2017-08-10 18:00:00 20.3 20 Norte 42 Norte 0 1015.1 -1 63
2017-08-10 17:00:00 21.2 20 Norte 42 Norte 0 1015.3 -1.2 58
2017-08-10 16:00:00 20.4 24 Norte 45 Norte 0 1015.8 -0.9 60
2017-08-10 15:00:00 20.5 23 Norte 41 Norte 0 1016.1 -0.7 58
2017-08-10 14:00:00 20.1 19 Norte 33 Norte 0 1016.5 -0.3 56
2017-08-10 13:00:00 19.7 12 Nordeste 26 Norte 0 1016.7 -0.2 60
2017-08-10 12:00:00 19.4 17 Nordeste 28 Nordeste 0 1016.8 0.1 60
2017-08-10 11:00:00 17.8 12 Nordeste 22 Nordeste 0 1016.8 0.3 68
2017-08-10 10:00:00 16 3 Este 8 Nordeste 0 1016.9 0.6 78
2017-08-10 09:00:00 12.7 4 Sur 13 Sur 0 1016.7 0.7 88
2017-08-10 08:00:00 10.6 5 Sur 11 Sur 0 1016.5 0.4 95
2017-08-10 07:00:00 11.5 2 Sur 8 Sur 0 1016.3 0.3 94
2017-08-10 06:00:00 11.5 4 Sur 8 Sur 0 1016 -0.2 93
2017-08-10 05:00:00 12.4 0 Calma 5 Noroeste 0 1016.1 -0.4 88
2017-08-10 04:00:00 12.7 4 Sur 5 Sur 0 1016 -0.3 87
2017-08-10 03:00:00 14.7 3 Norte 15 Norte 0 1016.2 0.3 80
2017-08-10 02:00:00 14.8 3 Norte 11 Nordeste 0 1016.5 0.8 79
2017-08-10 01:00:00 15.4 4 Norte 15 Norte 0 1016.3 1.3 77
2017-08-10 00:00:00 15.9 8 Norte 18 Norte 0 1015.9 1.2 74
2017-08-09 23:00:00 16.4 13 Nordeste 24 Nordeste 0 1015.7 1.4 72
2017-08-09 22:00:00 16.8 15 Nordeste 33 Norte 0 1015 0.9 67
2017-08-09 21:00:00 18 17 Norte 37 Norte 0 1014.7 0.7 62
2017-08-09 20:00:00 18.6 20 Norte 35 Norte 0 1014.3 0.1 59
2017-08-09 19:00:00 18.2 19 Norte 42 Norte 0 1014.1 0.1 63
2017-08-09 18:00:00 19.3 23 Norte 39 Norte 0 1014 0.3 59
2017-08-09 17:00:00 19 23 Norte 42 Norte 0 1014.2 0.5 59
2017-08-09 16:00:00 19.2 21 Norte 39 Norte 0 1014 0.5 59
2017-08-09 15:00:00 18.6 19 Norte 37 Norte 0 1013.7 0.6 60
2017-08-09 14:00:00 18.7 20 Norte 39 Norte 0 1013.7 1.1 59
2017-08-09 13:00:00 18.2 21 Norte 37 Norte 0 1013.5 1.4 58
2017-08-09 12:00:00 17.9 17 Norte 33 Norte 0 1013.1 1.7 61
2017-08-09 11:00:00 17 18 Norte 39 Norte 0 1012.6 1.5 64
2017-08-09 10:00:00 16.8 15 Nordeste 24 Nordeste 0 1012.1 1.3 64
2017-08-09 09:00:00 15.9 12 Nordeste 24 Norte 0 1011.4 1 71
2017-08-09 08:00:00 15.4 11 Nordeste 28 Nordeste 0 1011.1 0.8 72
2017-08-09 07:00:00 14.7 5 Norte 18 Norte 0 1010.8 0.4 82
2017-08-09 06:00:00 14 2 Sur -- -- 0 1010.4 0 90
2017-08-09 05:00:00 14.6 0 Calma 32 Norte 0 1010.3 -0.3 81
2017-08-09 04:00:00 14.3 17 Norte 35 Norte 0 1010.4 -0.4 88
2017-08-09 03:00:00 14.3 14 Noroeste 37 Noroeste 1.9 1010.4 -0.6 89
2017-08-09 02:00:00 15.1 4 Noroeste 13 Noroeste 0 1010.6 -0.3 78
2017-08-09 01:00:00 15.5 5 Noroeste 13 Noroeste 0 1010.8 0.3 74
2017-08-09 00:00:00 16.1 4 Noroeste 13 Noroeste 0 1011 0.7 74
2017-08-08 23:00:00 16.6 5 Noroeste 15 Noroeste 0 1010.9 0.8 73
2017-08-08 22:00:00 16.5 5 Noroeste 21 Oeste 0 1010.5 0.4 75
2017-08-08 21:00:00 17.6 14 Noroeste 22 Noroeste 0 1010.3 0.2 67
2017-08-08 20:00:00 18.6 17 Norte 30 Noroeste 0 1010.1 0 60
2017-08-08 19:00:00 19.5 14 Norte 30 Norte 0 1010.1 -0.2 56
2017-08-08 18:00:00 20 21 Norte 33 Norte 0 1010.1 -0.2 49
2017-08-08 17:00:00 20.5 16 Noroeste 28 Norte 0 1010.1 -0.4 48
2017-08-08 16:00:00 19.7 17 Noroeste 41 Noroeste 0 1010.3 -0.3 57
2017-08-08 15:00:00 20.1 16 Noroeste 30 Noroeste 0 1010.3 -0.1 50
2017-08-08 14:00:00 19.5 17 Noroeste 28 Norte 0 1010.5 0.3 54
2017-08-08 13:00:00 19.4 10 Norte 24 Norte 0 1010.6 0.4 57
2017-08-08 12:00:00 18 10 Norte 28 Norte 0 1010.4 0.4 66
2017-08-08 11:00:00 18 11 Norte 18 Nordeste 0 1010.2 0.7 70
2017-08-08 10:00:00 16 2 Sur 13 Sur 0 1010.2 1.1 92
2017-08-08 09:00:00 14.4 0 Calma 8 Sur 1.1 1010 1.2 96
2017-08-08 08:00:00 13.7 5 Sur 11 Sur 0 1009.5 0.8 97
2017-08-08 07:00:00 14.3 0 Calma 9 Noroeste 0 1009.1 0.5 93
2017-08-08 06:00:00 14.2 0 Calma 4 Sur 0 1008.8 0 96
2017-08-08 05:00:00 14.3 0 Calma 5 Sur 0 1008.7 -0.5 95
2017-08-08 04:00:00 14.3 5 Sur 8 Sur 0.3 1008.6 -0.5 95
2017-08-08 03:00:00 14.6 0 Calma 4 Este 0.7 1008.8 -0.3 91
2017-08-08 02:00:00 15.2 0 Calma 4 Sur 0 1009.2 0.2 87
2017-08-08 01:00:00 16.1 3 Norte 5 Norte 0 1009.1 0.7 83
2017-08-08 00:00:00 16.3 0 Calma 8 Norte 0 1009.1 1.1 82
2017-08-07 23:00:00 16.1 6 Norte 21 Norte 0 1009 1.4 79
2017-08-07 22:00:00 17.2 6 Norte 22 Norte 0 1008.4 0.8 69
2017-08-07 21:00:00 17.3 15 Norte 26 Norte 0 1008 0.6 68
2017-08-07 20:00:00 18.7 15 Norte 32 Norte 0 1007.6 0.3 62
2017-08-07 19:00:00 19.1 17 Norte 32 Norte 0 1007.6 0.7 61
2017-08-07 18:00:00 18.6 19 Norte 33 Norte 0 1007.4 0.6 65
2017-08-07 17:00:00 19.1 18 Norte 35 Norte 0 1007.3 0.5 62
2017-08-07 16:00:00 18.6 18 Norte 32 Norte 0 1006.9 0.4 68
2017-08-07 15:00:00 18.6 16 Norte 32 Norte 0 1006.8 0.7 67
2017-08-07 14:00:00 17.9 18 Norte 35 Norte 0 1006.8 1.3 71
2017-08-07 13:00:00 16.8 17 Norte 32 Norte 0 1006.5 1.2 83
2017-08-07 12:00:00 16.9 15 Norte 37 Norte 0 1006.1 1 83
2017-08-07 11:00:00 17.2 11 Norte 32 Norte 0 1005.5 0.6 85
2017-08-07 10:00:00 17 12 Norte 28 Norte 0 1005.3 0.7 90
2017-08-07 09:00:00 17.5 13 Norte 24 Norte 0 1005.1 0.5 86
2017-08-07 08:00:00 16.6 8 Norte 15 Norte 0 1004.9 -0.4 86
2017-08-07 07:00:00 16.9 3 Norte 11 Norte 0 1004.6 -1.2 87
2017-08-07 06:00:00 17.4 6 Norte 17 Norte 0 1004.6 -1.5 84
2017-08-07 05:00:00 17.5 6 Norte 15 Norte 0 1005.3 -1.4 80
2017-08-07 04:00:00 17.4 8 Norte 15 Norte 0 1005.8 -1.2 79
2017-08-07 03:00:00 17 5 Norte 15 Norte 0 1006.1 -1.3 81
2017-08-07 02:00:00 16.8 8 Norte 18 Norte 0 1006.7 -1 79
2017-08-07 01:00:00 17 6 Norte 17 Nordeste 0 1007 -0.3 77
2017-08-07 00:00:00 17.4 10 Norte 22 Norte 0 1007.4 0.4 76
2017-08-06 23:00:00 18 6 Norte 22 Norte 0 1007.7 0.8 74
2017-08-06 22:00:00 19 10 Nordeste 28 Nordeste 0 1007.3 0.1 69
2017-08-06 21:00:00 20.8 16 Nordeste 33 Nordeste 0 1007 -0.5 61
2017-08-06 20:00:00 22 17 Nordeste 42 Norte 0 1006.9 -0.9 58
2017-08-06 19:00:00 22.2 21 Nordeste 42 Norte 0 1007.2 -1.5 58
2017-08-06 18:00:00 23 26 Nordeste 45 Norte 0 1007.5 -1.6 54
2017-08-06 17:00:00 23.3 21 Nordeste 37 Este 0 1007.8 -1.8 53
2017-08-06 16:00:00 23.3 26 Nordeste 41 Nordeste 0 1008.7 -1.7 51
2017-08-06 15:00:00 23.1 24 Nordeste 41 Nordeste 0 1009.1 -1.8 50
2017-08-06 14:00:00 21.8 19 Nordeste 37 Norte 0 1009.6 -1.6 56
2017-08-06 13:00:00 20.9 17 Nordeste 37 Nordeste 0 1010.4 -0.9 60
2017-08-06 12:00:00 20 20 Nordeste 30 Nordeste 0 1010.9 -0.4 61
2017-08-06 11:00:00 18.6 16 Nordeste 33 Norte 0 1011.2 0.1 67
2017-08-06 10:00:00 18.3 16 Nordeste 28 Norte 0 1011.3 0.4 69
2017-08-06 09:00:00 17.4 14 Norte 26 Norte 0 1011.3 0.4 74
2017-08-06 08:00:00 17.2 16 Norte 32 Norte 0 1011.1 -0.1 74
2017-08-06 07:00:00 17.1 14 Norte 26 Norte 0 1010.9 -0.6 76
2017-08-06 06:00:00 17 12 Norte 26 Nordeste 0 1010.9 -0.9 77
2017-08-06 05:00:00 17.1 13 Norte 22 Nordeste 0 1011.2 -1.1 78
2017-08-06 04:00:00 16.9 11 Norte 22 Nordeste 0 1011.5 -1 78
2017-08-06 03:00:00 16.6 10 Norte 22 Norte 0 1011.8 -0.9 78
2017-08-06 02:00:00 16.5 7 Norte 18 Norte 0 1012.3 -0.4 80
2017-08-06 01:00:00 16.7 8 Norte 24 Norte 0 1012.5 0.3 80
2017-08-06 00:00:00 17 10 Nordeste 26 Norte 0 1012.7 1 76
2017-08-05 23:00:00 17.1 12 Nordeste 28 Nordeste 0 1012.7 1.1 72
2017-08-05 22:00:00 17.9 17 Nordeste 33 Nordeste 0 1012.2 0.8 67
2017-08-05 21:00:00 19.4 21 Nordeste 42 Nordeste 0 1011.7 0.6 58
2017-08-05 20:00:00 20.3 21 Norte 39 Nordeste 0 1011.6 0.2 56
2017-08-05 19:00:00 20.2 19 Norte 39 Norte 0 1011.4 -0.2 64
2017-08-05 18:00:00 20.5 14 Norte 35 Nordeste 0 1011.1 -0.5 64
2017-08-05 17:00:00 20.9 22 Nordeste 39 Nordeste 0 1011.4 -0.2 54
2017-08-05 16:00:00 20.1 21 Nordeste 35 Nordeste 0 1011.6 -0.1 61
2017-08-05 15:00:00 20.1 18 Nordeste 33 Nordeste 0 1011.6 0.2 66
2017-08-05 14:00:00 19.6 23 Nordeste 41 Nordeste 0 1011.6 0.6 69
2017-08-05 13:00:00 19.5 19 Nordeste 33 Este 0 1011.7 0.7 73
2017-08-05 12:00:00 19.5 18 Nordeste 30 Nordeste 0 1011.4 0.9 75
2017-08-05 11:00:00 18.8 8 Norte 21 Nordeste 0 1011 1 79
2017-08-05 10:00:00 17.2 5 Norte 15 Norte 0 1011 1.1 87
2017-08-05 09:00:00 16.7 3 Norte 5 Norte 0 1010.5 0.9 93
2017-08-05 08:00:00 16.3 0 Calma 8 Norte 0 1010 0.4 92
2017-08-05 07:00:00 16.3 2 Norte 5 Noroeste 0 1009.9 0.4 94
2017-08-05 06:00:00 16.4 0 Calma 17 Norte 0 1009.6 0.1 93
2017-08-05 05:00:00 16.3 4 Norte 11 Norte 0 1009.6 0.2 93
2017-08-05 04:00:00 15.8 4 Norte 21 Norte 0.3 1009.5 0.3 98
2017-08-05 03:00:00 16.1 11 Norte 21 Norte 0.3 1009.5 0.6 99
2017-08-05 02:00:00 16.1 10 Norte 26 Norte 0.2 1009.4 0.8 99
2017-08-05 01:00:00 16.1 16 Norte 32 Norte 0 1009.2 1.3 99
2017-08-05 00:00:00 16.9 16 Norte 30 Norte 0 1008.9 1.5 98
2017-08-04 23:00:00 16.8 14 Norte 30 Norte 0.1 1008.6 1.6 98
2017-08-04 22:00:00 17.2 14 Norte 30 Norte 0 1007.9 1.2 98
2017-08-04 21:00:00 17.4 18 Norte 32 Norte 0 1007.4 1 98
2017-08-04 20:00:00 18 15 Norte 26 Norte 0 1007 0.6 97
2017-08-04 19:00:00 20.1 14 Norte 33 Norte 0.6 1006.7 0.1 96
2017-08-04 18:00:00 21.7 17 Noroeste 28 Noroeste 0.4 1006.4 -0.2 94
2017-08-04 17:00:00 23 4 Sudoeste 22 Oeste 1.1 1006.4 -0.1 91
2017-08-04 16:00:00 24 15 Sudoeste 28 Sudoeste 0 1006.6 0.2 82
2017-08-04 15:00:00 25.1 19 Sudoeste 35 Sudoeste 0 1006.6 0.1 73
2017-08-04 14:00:00 26.3 19 Sudoeste 35 Sur 0 1006.5 0 67
2017-08-04 13:00:00 26 19 Sudoeste 30 Sur 0 1006.4 0.1 68
2017-08-04 12:00:00 25.4 19 Sur 32 Sur 0 1006.5 0.6 71
2017-08-04 11:00:00 24 21 Sur 33 Sur 0 1006.5 1 76
2017-08-04 10:00:00 22.4 21 Sur 37 Sudoeste 0 1006.3 0.8 81
2017-08-04 09:00:00 21.8 22 Sudoeste 35 Sudoeste 0 1005.9 0.4 83
2017-08-04 08:00:00 21.5 27 Sudoeste 39 Sudoeste 0 1005.5 -0.4 82
2017-08-04 07:00:00 21.1 26 Sudoeste 37 Sudoeste 0 1005.5 -0.5 83
2017-08-04 06:00:00 20.9 27 Sudoeste 39 Sudoeste 0 1005.5 -0.6 83
2017-08-04 05:00:00 20.5 28 Sudoeste 35 Sudoeste 0 1005.9 -0.4 84
2017-08-04 04:00:00 20.4 23 Sudoeste 35 Sudoeste 0 1006 -0.7 83
2017-08-04 03:00:00 20.3 19 Sudoeste 28 Sudoeste 0 1006.1 -0.7 81
2017-08-04 02:00:00 20.8 18 Sur 30 Sudeste 0 1006.3 -0.6 74
2017-08-04 01:00:00 21.6 14 Sur 32 Sudoeste 0 1006.7 0.3 68
2017-08-04 00:00:00 21.9 24 Sudoeste 37 Sudoeste 0 1006.8 0.6 67
2017-08-03 23:00:00 22.9 18 Sudoeste 32 Sur 0 1006.9 0.8 58
2017-08-03 22:00:00 24.1 19 Sudoeste 33 Sudoeste 0 1006.4 -0.4 57
2017-08-03 21:00:00 25 17 Sudoeste 26 Sudoeste 0 1006.2 -0.9 55
2017-08-03 20:00:00 22.9 2 Norte 15 Norte 0 1006.1 -1.2 63
2017-08-03 19:00:00 23.8 7 Norte 17 Norte 0 1006.8 -0.5 61
2017-08-03 18:00:00 23.6 8 Nordeste 24 Norte 0 1007.1 -0.3 63
2017-08-03 17:00:00 23.9 15 Norte 28 Nordeste 0 1007.3 -0.3 59
2017-08-03 16:00:00 23.9 13 Norte 24 Nordeste 0 1007.3 -0.8 63
2017-08-03 15:00:00 23.4 14 Norte 24 Norte 0 1007.4 -1.1 64
2017-08-03 14:00:00 22.7 14 Nordeste 22 Norte 0 1007.6 -1.1 58
2017-08-03 13:00:00 23.9 7 Norte 21 Sur 0 1008.1 -0.3 58
2017-08-03 12:00:00 23.4 7 Sur 18 Sur 0 1008.5 0.6 60
2017-08-03 11:00:00 21.3 4 Oeste 17 Oeste 0 1008.7 1.3 64
2017-08-03 10:00:00 20.4 9 Oeste 18 Oeste 0 1008.4 1.4 68
2017-08-03 09:00:00 19 8 Oeste 17 Oeste 0 1007.9 1.2 76
2017-08-03 08:00:00 17.9 6 Noroeste 22 Noroeste 0 1007.4 0.7 88
2017-08-03 07:00:00 18.7 12 Noroeste 24 Noroeste 0.8 1007 0.1 96
2017-08-03 06:00:00 19.5 2 Norte 8 Noroeste 0.1 1006.7 -0.1 96
2017-08-03 05:00:00 20.5 2 Sudoeste 17 Sudoeste 0 1006.7 -0.3 85
2017-08-03 04:00:00 20.7 14 Sudoeste 28 Sur 0 1006.9 -0.4 83
2017-08-03 03:00:00 20.7 19 Sur 35 Sudoeste 0 1006.8 -0.6 80
2017-08-03 02:00:00 21 23 Sudoeste 33 Sudoeste 0 1007 -0.6 78
2017-08-03 01:00:00 20.9 14 Sur 26 Sudoeste 0 1007.3 0.3 77
2017-08-03 00:00:00 21.5 17 Sur 30 Sur 0 1007.4 0.8 74
2017-08-02 23:00:00 21.8 13 Sur 33 Sur 0 1007.6 1.5 72
2017-08-02 22:00:00 22 17 Sudoeste 37 Sudoeste 0 1007 0.7 70
2017-08-02 21:00:00 23.6 23 Sudoeste 37 Sudoeste 0 1006.6 0.5 63
2017-08-02 20:00:00 25 21 Sudoeste 35 Sudoeste 0 1006.1 0.5 60
2017-08-02 19:00:00 25.8 23 Sudoeste 39 Sudoeste 0 1006.3 -0.1 56
2017-08-02 18:00:00 27.1 26 Sudoeste 42 Sudoeste 0 1006.1 -0.5 53
2017-08-02 17:00:00 27.6 20 Sudoeste 32 Sur 0 1005.6 -1.2 51
2017-08-02 16:00:00 27.1 14 Sudoeste 35 Sudoeste 0 1006.4 -1.2 53
2017-08-02 15:00:00 27 23 Sudoeste 37 Sudoeste 0 1006.6 -1 52
2017-08-02 14:00:00 25.9 19 Sudoeste 37 Sur 0 1006.8 -1 56
2017-08-02 13:00:00 24.4 17 Sur 26 Sur 0 1007.6 -0.2 60
2017-08-02 12:00:00 23.2 15 Sudoeste 32 Sur 0 1007.6 -0.1 62
2017-08-02 11:00:00 21.2 14 Sur 28 Sudoeste 0 1007.8 0.2 66
2017-08-02 10:00:00 18.6 21 Sur 33 Sur 0 1007.8 0.4 74
2017-08-02 09:00:00 15.8 8 Sudeste 26 Sudeste 0 1007.7 0.3 80
2017-08-02 08:00:00 13.6 13 Sur 26 Sur 0 1007.6 0 87
2017-08-02 07:00:00 13.1 13 Sur 21 Sudeste 0 1007.4 -0.3 89
2017-08-02 06:00:00 12.9 12 Sur 17 Sur 0 1007.4 -0.7 91
2017-08-02 05:00:00 12.7 13 Sur 15 Sur 0 1007.6 -0.9 93
2017-08-02 04:00:00 13.1 10 Sur 15 Sur 0 1007.7 -0.8 91
2017-08-02 03:00:00 13.4 6 Sur 11 Sur 0 1008.1 -0.5 90
2017-08-02 02:00:00 13.9 4 Sur 11 Sudeste 0 1008.5 -0.1 87
2017-08-02 01:00:00 14.9 7 Sur 8 Sur 0 1008.5 0.5 83
2017-08-02 00:00:00 16.1 5 Sur 8 Sur 0 1008.6 1.2 78
2017-08-01 23:00:00 17.1 0 Calma 11 Sur 0 1008.6 1.6 71
2017-08-01 22:00:00 18.8 3 Norte 13 Noroeste 0 1008 1.3 72
2017-08-01 21:00:00 20.6 6 Norte 18 Norte 0 1007.4 0.8 60
2017-08-01 20:00:00 20.5 11 Norte 28 Norte 0 1007 0.7 60
2017-08-01 19:00:00 20.8 17 Noroeste 28 Noroeste 0 1006.7 0.6 58
2017-08-01 18:00:00 21.2 17 Norte 28 Norte 0 1006.6 0.5 56
2017-08-01 17:00:00 21.3 15 Norte 30 Norte 0 1006.3 0.2 56
2017-08-01 16:00:00 20.9 16 Norte 26 Norte 0 1006.1 -0.1 60
2017-08-01 15:00:00 21.1 15 Norte 26 Norte 0 1006.1 -0.1 59
2017-08-01 14:00:00 21.1 15 Nordeste 24 Nordeste 0 1006.1 0 61
2017-08-01 13:00:00 20.5 12 Norte 21 Norte 0 1006.2 0.4 64
2017-08-01 12:00:00 20 9 Norte 18 Noroeste 0 1006.2 0.8 67
2017-08-01 11:00:00 19.2 3 Nordeste 11 Este 0 1006.1 1.5 70
2017-08-01 10:00:00 16.1 6 Sudeste 26 Sudeste 0 1005.8 1.2 84
2017-08-01 09:00:00 13.8 7 Sur 11 Sur 0 1005.4 1.2 91
2017-08-01 08:00:00 12.1 6 Sur 24 Sudeste 0 1004.6 0.6 97
2017-08-01 07:00:00 12.6 7 Sur 11 Sur 0 1004.6 0.5 96
2017-08-01 06:00:00 13.1 4 Sur 11 Sur 0 1004.2 -0.1 95
2017-08-01 05:00:00 13.7 5 Sur 8 Sur 0 1004 -0.4 93
2017-08-01 04:00:00 15.1 0 Calma 4 Noroeste 0 1004.1 -0.2 87
2017-08-01 03:00:00 16.1 0 Calma 5 Noroeste 0 1004.3 0.1 84
2017-08-01 02:00:00 16.8 0 Calma 8 Norte 0 1004.4 0.6 81
2017-08-01 01:00:00 17.4 4 Norte 18 Norte 0 1004.3 1 82
2017-08-01 00:00:00 17.6 12 Norte 22 Norte 0 1004.2 1.2 80
2017-07-31 23:00:00 17.6 10 Norte 21 Norte 0 1003.8 1 78
2017-07-31 22:00:00 18.1 13 Norte 26 Norte 0 1003.3 0.6 76
2017-07-31 21:00:00 18.9 15 Norte 26 Norte 0 1003 0.4 70
2017-07-31 20:00:00 19 17 Norte 26 Norte 0 1002.8 0.3 72
2017-07-31 19:00:00 19.2 19 Norte 32 Noroeste 0 1002.7 0 72
2017-07-31 18:00:00 20.4 15 Norte 28 Norte 0 1002.6 0.1 62
2017-07-31 17:00:00 21 17 Norte 33 Norte 0 1002.5 0.1 62
2017-07-31 16:00:00 20.9 18 Norte 32 Nordeste 0 1002.7 0 63
2017-07-31 15:00:00 20.9 18 Norte 28 Nordeste 0 1002.5 -0.2 62
2017-07-31 14:00:00 20.7 15 Norte 30 Norte 0 1002.4 -0.4 64
2017-07-31 13:00:00 20.3 11 Norte 28 Norte 0 1002.7 -0.2 64
2017-07-31 12:00:00 19.7 12 Norte 21 Nordeste 0 1002.7 -0.2 70
2017-07-31 11:00:00 18.9 10 Norte 18 Norte 0 1002.8 0 73
2017-07-31 10:00:00 18.2 0 Calma 18 Sudeste 0 1002.9 0.6 79
2017-07-31 09:00:00 15.6 5 Sur 8 Sur 0 1002.9 0.6 88
2017-07-31 08:00:00 15.3 2 Sur 8 Sur 0 1002.8 0.3 89
2017-07-31 07:00:00 15.2 3 Sur 17 Sur 0 1002.3 -0.7 90
2017-07-31 06:00:00 15.4 5 Sur 8 Sur 0 1002.3 -1.1 87
2017-07-31 05:00:00 15.3 3 Sudeste 13 Sur 0 1002.5 -1.4 87
2017-07-31 04:00:00 15.6 3 Sur 8 Sur 0 1003 -1.3 86
2017-07-31 03:00:00 15.6 4 Sudoeste 11 Sur 0 1003.4 -1.1 85
2017-07-31 02:00:00 16.1 5 Sur 13 Sudeste 0 1003.9 -1.1 82
2017-07-31 01:00:00 16.6 4 Sur 15 Oeste 0 1004.3 -0.1 80
2017-07-31 00:00:00 17.4 5 Oeste 11 Oeste 0 1004.5 0.5 76
2017-07-30 23:00:00 17.8 4 Oeste 9 Oeste 0 1005 1 72
2017-07-30 22:00:00 18 5 Oeste 13 Norte 0 1004.4 0.5 70
2017-07-30 21:00:00 18.6 9 Noroeste 21 Noroeste 0 1004 0.1 64
2017-07-30 20:00:00 19.4 7 Noroeste 33 Oeste 0 1004 -0.5 59
2017-07-30 19:00:00 20 16 Noroeste 33 Noroeste 0 1003.9 -0.6 59
2017-07-30 18:00:00 20.2 13 Noroeste 35 Oeste 0 1003.9 -0.5 61
2017-07-30 17:00:00 20 23 Noroeste 41 Noroeste 0 1004.5 0.5 61
2017-07-30 16:00:00 19.8 24 Noroeste 39 Noroeste 0 1004.5 0.2 59
2017-07-30 15:00:00 19.8 26 Noroeste 45 Noroeste 0 1004.4 0.3 57
2017-07-30 14:00:00 20 22 Noroeste 45 Noroeste 0 1004 -0.1 67
2017-07-30 13:00:00 21.7 14 Oeste 33 Oeste 0 1004.3 0.2 62
2017-07-30 12:00:00 21.4 17 Oeste 33 Oeste 0 1004.1 0.1 60
2017-07-30 11:00:00 20.5 8 Sudoeste 22 Sudoeste 0 1004.1 0.1 66
2017-07-30 10:00:00 18.9 11 Sudoeste 21 Sudoeste 0 1004.1 0.3 76
2017-07-30 09:00:00 17.3 12 Sudoeste 21 Sudoeste 0 1004 0.3 80
2017-07-30 08:00:00 15.4 6 Sur 15 Sur 0 1004 -0.4 88
2017-07-30 07:00:00 16.7 13 Sudoeste 22 Sudoeste 0 1003.8 -0.9 81
2017-07-30 06:00:00 16.2 9 Sudoeste 13 Sudoeste 0 1003.7 -1.3 89
2017-07-30 05:00:00 17.1 7 Sur 15 Oeste 0 1004.4 -0.9 90
2017-07-30 04:00:00 17.4 5 Oeste 17 Oeste 0 1004.7 -0.4 88
2017-07-30 03:00:00 17.6 0 Calma 21 Noroeste 0 1005 0 90
2017-07-30 02:00:00 17.5 13 Noroeste 28 Oeste 0.2 1005.3 0.5 93
2017-07-30 01:00:00 18.3 15 Noroeste 26 Noroeste 1.1 1005.1 0.8 94
2017-07-30 00:00:00 20.1 3 Sudeste 22 Sur 0 1005 0.9 81
2017-07-29 23:00:00 20.5 8 Sur 30 Sudoeste 0 1004.8 0.8 78
2017-07-29 22:00:00 21.3 20 Sudoeste 35 Sudoeste 0 1004.3 0.6 71
2017-07-29 21:00:00 22.2 14 Oeste 35 Sudoeste 0 1004.1 0.3 73
2017-07-29 20:00:00 23.1 28 Sudoeste 52 Sudoeste 0 1004 0.5 68
2017-07-29 19:00:00 24.7 37 Sudoeste 54 Sudoeste 0 1003.7 0.3 55
2017-07-29 18:00:00 26.1 24 Sudoeste 50 Sudoeste 0 1003.8 0.2 59
2017-07-29 17:00:00 27.1 27 Sudoeste 54 Sudoeste 0 1003.5 -0.4 57
2017-07-29 16:00:00 27 34 Sudoeste 58 Sudoeste 0 1003.4 -0.7 58
2017-07-29 15:00:00 26.4 33 Sudoeste 54 Sudoeste 0 1003.6 -0.9 60
2017-07-29 14:00:00 26.8 32 Sudoeste 48 Sudoeste 0 1003.9 -0.9 60
2017-07-29 13:00:00 25.4 27 Sur 42 Sur 0 1004.1 -0.7 66
2017-07-29 12:00:00 24.3 17 Sur 28 Sur 0 1004.5 -0.2 73
2017-07-29 11:00:00 21.3 15 Sur 26 Sur 0 1004.8 0.2 88
2017-07-29 10:00:00 21.1 14 Sur 26 Sur 0 1004.8 0.2 84
2017-07-29 09:00:00 20.4 19 Sudoeste 28 Sudoeste 0 1004.7 0.2 83
2017-07-29 08:00:00 19.3 9 Sur 15 Sudeste 0 1004.6 0.1 82
2017-07-29 07:00:00 19.3 7 Sur 22 Sur 0 1004.6 -0.3 79
2017-07-29 06:00:00 20.4 5 Sur 17 Sur 0 1004.5 -0.7 84
2017-07-29 05:00:00 20.6 7 Sur 18 Sur 0 1004.5 -0.9 85
2017-07-29 04:00:00 20.6 12 Sur 22 Sur 0 1004.9 -0.9 86
2017-07-29 03:00:00 20.5 13 Sur 24 Sudoeste 0 1005.2 -1 86
2017-07-29 02:00:00 20.7 14 Sur 32 Sudoeste 0 1005.4 -1.2 85
2017-07-29 01:00:00 20.8 12 Sur 22 Sudoeste 0 1005.8 -0.3 86
2017-07-29 00:00:00 21 13 Sudoeste 28 Sudoeste 0 1006.2 0.1 86
2017-07-28 23:00:00 22 16 Sudoeste 26 Sudoeste 0 1006.6 0.6 79
2017-07-28 22:00:00 23 15 Sudoeste 24 Sudoeste 0 1006.1 -0.1 76
2017-07-28 21:00:00 24.6 14 Sudoeste 28 Sudoeste 0 1006.1 -0.1 70
2017-07-28 20:00:00 24.7 11 Oeste 26 Oeste 0 1006 -0.3 70
2017-07-28 19:00:00 23.6 3 Nordeste 17 Norte 0 1006.2 -0.3 69
2017-07-28 18:00:00 23.6 11 Norte 17 Norte 0 1006.2 -0.4 67
2017-07-28 17:00:00 23.6 10 Nordeste 15 Norte 0 1006.3 -0.3 66
2017-07-28 16:00:00 21.9 8 Nordeste 21 Nordeste 0 1006.5 -0.2 70
2017-07-28 15:00:00 23.4 13 Norte 22 Norte 0 1006.6 0 60
2017-07-28 14:00:00 23.7 12 Norte 21 Norte 0 1006.6 -0.4 60
2017-07-28 13:00:00 23.5 9 Nordeste 21 Sur 0 1006.7 -0.3 60
2017-07-28 12:00:00 22.6 7 Sudoeste 21 Sur 0 1006.6 -0.3 60
2017-07-28 11:00:00 21.1 10 Sur 26 Sur 0 1007 0.4 67
2017-07-28 10:00:00 19.3 9 Sudeste 17 Sudeste 0 1007 0.5 74
2017-07-28 09:00:00 17.8 6 Sur 13 Sur 0 1006.9 0.5 80
2017-07-28 08:00:00 15.9 7 Sur 15 Sur 0 1006.6 0.1 86
2017-07-28 07:00:00 15.9 6 Sudoeste 15 Sur 0 1006.5 0.1 87
2017-07-28 06:00:00 16.9 5 Sudoeste 11 Sudoeste 0 1006.4 0 83
2017-07-28 05:00:00 17 4 Sur 8 Sudoeste 0 1006.5 0 87
2017-07-28 04:00:00 16.9 2 Noroeste 8 Oeste 0 1006.4 -0.3 90
2017-07-28 03:00:00 16.9 3 Oeste 8 Sur 0 1006.4 -0.3 91
2017-07-28 02:00:00 17.5 0 Calma 8 Noroeste 0 1006.5 -0.3 89
2017-07-28 01:00:00 17.8 2 Oeste 8 Oeste 0 1006.7 0.2 89
2017-07-28 00:00:00 17.7 2 Oeste 5 Noroeste 0 1006.7 0.7 90
2017-07-27 23:00:00 17.7 0 Calma 5 Nordeste 0 1006.8 1.3 92
2017-07-27 22:00:00 18.3 3 Nordeste 8 Nordeste 0 1006.5 1.2 90
2017-07-27 21:00:00 18.3 7 Norte 13 Norte 0 1006 0.5 92
2017-07-27 20:00:00 19.7 4 Norte 21 Norte 0 1005.5 -0.2 84
2017-07-27 19:00:00 19.3 12 Noroeste 21 Noroeste 0 1005.3 -0.3 87
2017-07-27 18:00:00 18.2 6 Norte 18 Norte 0 1005.5 0.2 97
2017-07-27 17:00:00 18.7 9 Norte 15 Norte 0 1005.7 0.5 96
2017-07-27 16:00:00 18.8 9 Norte 22 Noroeste 0 1005.6 0.3 96
2017-07-27 15:00:00 19.2 12 Noroeste 24 Noroeste 0.8 1005.3 0.1 96
2017-07-27 14:00:00 20.6 9 Norte 15 Norte 0 1005.2 0.1 95
2017-07-27 13:00:00 21.6 3 Oeste 17 Sur 0.1 1005.3 0.3 87
2017-07-27 12:00:00 20.9 12 Sudoeste 22 Sur 0 1005.2 0.3 85
2017-07-27 11:00:00 21.2 9 Sur 17 Sur 0 1005.1 0.3 79
2017-07-27 10:00:00 20.4 10 Sur 22 Sur 0 1005 0.3 81
2017-07-27 09:00:00 18.8 9 Sur 24 Sudeste 0 1004.9 0.3 88
2017-07-27 08:00:00 18.1 10 Sur 28 Sudeste 0 1004.8 -0.1 86
2017-07-27 07:00:00 17.7 6 Sudeste 26 Sudeste 0 1004.7 -0.4 86
2017-07-27 06:00:00 17.2 7 Sur 11 Sur 0 1004.6 -0.8 88
2017-07-27 05:00:00 16.5 8 Sur 13 Sur 0 1004.9 -0.8 91
2017-07-27 04:00:00 16.7 7 Sur 11 Sur 0 1005.1 -1.1 90
2017-07-27 03:00:00 16.7 7 Sur 11 Sur 0 1005.4 -1 90
2017-07-27 02:00:00 16.9 3 Sur 11 Sur 0 1005.7 -0.5 89
2017-07-27 01:00:00 17.6 6 Sur 8 Sur 0 1006.2 0.4 86
2017-07-27 00:00:00 18 2 Oeste 18 Noroeste 0 1006.4 0.7 85
2017-07-26 23:00:00 18.5 8 Noroeste 17 Noroeste 0 1006.2 0.5 83
2017-07-26 22:00:00 19.5 7 Noroeste 17 Oeste 0 1005.8 -0.2 77
2017-07-26 21:00:00 21 8 Noroeste 21 Noroeste 0 1005.7 -0.4 68
2017-07-26 20:00:00 21.6 13 Noroeste 22 Noroeste 0 1005.7 -0.8 64
2017-07-26 19:00:00 22.2 14 Noroeste 26 Norte 0 1006 -0.6 62
2017-07-26 18:00:00 22.2 13 Noroeste 30 Noroeste 0 1006.1 -0.8 61
2017-07-26 17:00:00 22 16 Norte 32 Norte 0 1006.5 -0.7 60
2017-07-26 16:00:00 22.6 15 Norte 30 Nordeste 0 1006.6 -0.8 59
2017-07-26 15:00:00 21.3 13 Norte 24 Norte 0 1006.9 -0.5 63
2017-07-26 14:00:00 21.2 12 Nordeste 22 Nordeste 0 1007.2 -0.5 63
2017-07-26 13:00:00 20.2 10 Nordeste 18 Nordeste 0 1007.4 -0.2 66
2017-07-26 12:00:00 19.9 2 Sudeste 11 Norte 0 1007.4 0.3 70
2017-07-26 11:00:00 18.2 2 Este 8 Este 0 1007.7 0.7 78
2017-07-26 10:00:00 17.1 4 Sur 15 Sur 0 1007.6 1 82
2017-07-26 09:00:00 16.8 3 Sur 5 Sudeste 0 1007.1 0.3 85
2017-07-26 08:00:00 16.5 3 Sudeste 22 Sudeste 0 1007 -0.1 88
2017-07-26 07:00:00 16.6 3 Sudeste 15 Sudeste 0 1006.6 -0.9 88
2017-07-26 06:00:00 16.5 0 Calma 8 Sur 0 1006.8 -1.3 91
2017-07-26 05:00:00 16.3 5 Sudeste 8 Sudeste 0 1007.1 -1.3 92
2017-07-26 04:00:00 17 2 Sudeste 4 Sudeste 0 1007.5 -1.3 88
2017-07-26 03:00:00 17.3 0 Calma 8 Nordeste 0 1008.1 -0.9 86
2017-07-26 02:00:00 17.3 0 Calma 8 Norte 0 1008.4 -0.9 89
2017-07-26 01:00:00 17.1 7 Norte 18 Norte 0 1008.8 -0.2 90
2017-07-26 00:00:00 16.9 9 Norte 21 Norte 0 1009 0 92
2017-07-25 23:00:00 17.2 14 Norte 26 Norte 0 1009.3 0.1 87
2017-07-25 22:00:00 17.6 16 Norte 26 Norte 0 1009 -0.3 83
2017-07-25 21:00:00 18.8 17 Norte 33 Norte 0 1009 -0.4 74
2017-07-25 20:00:00 19.2 19 Norte 32 Noroeste 0 1009.2 -0.4 73
2017-07-25 19:00:00 20.1 15 Norte 33 Norte 0 1009.3 -0.9 68
2017-07-25 18:00:00 20.2 22 Norte 35 Norte 0 1009.4 -1.3 66
2017-07-25 17:00:00 21.5 16 Norte 30 Norte 0 1009.6 -1.6 61
2017-07-25 16:00:00 21.6 16 Norte 33 Norte 0 1010.2 -1.1 59
2017-07-25 15:00:00 20.2 18 Norte 32 Norte 0 1010.7 -0.9 61
2017-07-25 14:00:00 19.5 19 Norte 30 Noroeste 0 1011.2 -0.6 63
2017-07-25 13:00:00 19.6 15 Norte 32 Norte 0 1011.3 -0.7 64
2017-07-25 12:00:00 18.6 14 Norte 24 Norte 0 1011.6 -0.6 69
2017-07-25 11:00:00 18.6 12 Nordeste 18 Nordeste 0 1011.8 -0.2 68
2017-07-25 10:00:00 17.6 9 Nordeste 18 Nordeste 0 1012 0.1 74
2017-07-25 09:00:00 16.9 10 Norte 18 Norte 0 1012.2 0.1 78
2017-07-25 08:00:00 16.7 9 Norte 17 Norte 0 1012 -0.5 78
2017-07-25 07:00:00 16.7 7 Norte 15 Norte 0 1011.9 -0.9 79
2017-07-25 06:00:00 16.9 10 Nordeste 17 Nordeste 0 1012.1 -1.1 80
2017-07-25 05:00:00 17.1 3 Norte 17 Nordeste 0 1012.5 -0.9 77
2017-07-25 04:00:00 17.1 12 Norte 22 Nordeste 0 1012.8 -1.1 82
2017-07-25 03:00:00 17.1 5 Norte 13 Norte 0 1013.2 -0.8 89
2017-07-25 02:00:00 16.9 3 Norte 15 Norte 0 1013.4 -0.7 90
2017-07-25 01:00:00 17.1 8 Norte 21 Norte 0 1013.9 0 88
2017-07-25 00:00:00 17.3 5 Norte 21 Norte 0 1014 0 87
2017-07-24 23:00:00 17.3 10 Norte 22 Norte 0 1014.1 0 87
2017-07-24 22:00:00 17.6 6 Norte 17 Norte 0 1013.9 -0.2 84
2017-07-24 21:00:00 17.9 6 Norte 18 Noroeste 0 1014 0 84
2017-07-24 20:00:00 17 10 Norte 28 Norte 0 1014.1 -0.2 92
2017-07-24 19:00:00 18.8 13 Norte 26 Norte 0 1014.1 -0.4 77
2017-07-24 18:00:00 19.7 15 Norte 30 Norte 0 1014 -0.6 69
2017-07-24 17:00:00 19.1 15 Norte 30 Norte 0 1014.3 -0.1 77
2017-07-24 16:00:00 20 14 Norte 28 Nordeste 0 1014.5 0.2 71
2017-07-24 15:00:00 18.2 9 Norte 32 Norte 0 1014.6 0.3 83
2017-07-24 14:00:00 18.8 16 Norte 32 Norte 0 1014.4 0.2 80
2017-07-24 13:00:00 18.7 13 Norte 26 Norte 0 1014.3 0.4 83
2017-07-24 12:00:00 17.3 11 Norte 24 Norte 0 1014.3 0.8 90
2017-07-24 11:00:00 16.8 5 Norte 17 Norte 0 1014.2 1.1 93
2017-07-24 10:00:00 16.1 9 Norte 22 Norte 0.1 1013.9 1.2 97
2017-07-24 09:00:00 17 3 Norte 13 Norte 0 1013.5 1.2 95
2017-07-24 08:00:00 16.6 4 Norte 11 Norte 0 1013.1 0.7 97
2017-07-24 07:00:00 16.3 3 Norte 17 Norte 0.4 1012.7 0.3 98
2017-07-24 06:00:00 16.4 4 Norte 24 Norte 0 1012.3 -0.2 98
2017-07-24 05:00:00 17.1 17 Norte 26 Norte 0 1012.4 -0.1 95
2017-07-24 04:00:00 17.6 4 Noroeste 11 Norte 0 1012.4 -0.2 95
2017-07-24 03:00:00 17.2 6 Noroeste 18 Noroeste 0.1 1012.5 0.1 96
2017-07-24 02:00:00 17.6 0 Calma 21 Noroeste 0 1012.5 0.4 94
2017-07-24 01:00:00 17.6 10 Noroeste 22 Noroeste 0 1012.6 1.1 94
2017-07-24 00:00:00 18.4 10 Noroeste 21 Noroeste 0 1012.4 1.1 93
2017-07-23 23:00:00 18.3 10 Noroeste 24 Noroeste 0 1012.1 0.9 93
2017-07-23 22:00:00 18.1 12 Noroeste 26 Noroeste 0 1011.5 0.4 97
2017-07-23 21:00:00 18.9 15 Noroeste 30 Oeste 0 1011.3 0.3 94
2017-07-23 20:00:00 19.5 16 Noroeste 30 Noroeste 0 1011.2 0 89
2017-07-23 19:00:00 20.8 17 Noroeste 35 Noroeste 0 1011.1 -0.3 82
2017-07-23 18:00:00 21.4 14 Noroeste 33 Noroeste 0 1011 -0.5 78
2017-07-23 17:00:00 22.1 15 Noroeste 32 Norte 0 1011.2 -0.3 73
2017-07-23 16:00:00 21.6 15 Oeste 32 Oeste 0 1011.4 -0.1 73
2017-07-23 15:00:00 20.9 13 Noroeste 28 Noroeste 0 1011.5 0.1 78
2017-07-23 14:00:00 20.9 9 Oeste 18 Oeste 0 1011.5 -0.1 77
2017-07-23 13:00:00 20.8 10 Noroeste 18 Noroeste 0 1011.5 0 73
2017-07-23 12:00:00 20.4 2 Norte 15 Sudeste 0 1011.4 0.1 73
2017-07-23 11:00:00 18.5 5 Sur 13 Sudeste 0 1011.6 0.9 78
2017-07-23 10:00:00 16.1 9 Sur 24 Sudeste 0 1011.5 1.1 82
2017-07-23 09:00:00 14.1 4 Sur 15 Sur 0 1011.3 1.1 89
2017-07-23 08:00:00 13 9 Sur 24 Sudeste 0 1010.7 0.7 92
2017-07-23 07:00:00 12.7 5 Sur 26 Sudeste 0 1010.4 0.2 94
2017-07-23 06:00:00 12.6 7 Sur 11 Sur 0 1010.2 -0.5 94
2017-07-23 05:00:00 13 7 Sur 11 Sur 0 1010 -0.6 93
2017-07-23 04:00:00 13.7 6 Sur 13 Sur 0 1010.2 -0.3 91
2017-07-23 03:00:00 14 6 Sur 13 Sur 0 1010.7 0.3 90
2017-07-23 02:00:00 14.6 3 Sur -- -- 0 1010.6 0.3 86
2017-07-23 01:00:00 15.3 2 Sur 8 Noroeste 0 1010.5 1.1 83
2017-07-23 00:00:00 16.5 2 Oeste 8 Noroeste 0 1010.4 1.5 78
2017-07-22 23:00:00 16.9 5 Noroeste 17 Noroeste 0 1010.3 1.7 76
2017-07-22 22:00:00 17.3 9 Noroeste 21 Noroeste 0 1009.4 1.1 74
2017-07-22 21:00:00 18.8 13 Noroeste 24 Noroeste 0 1008.9 1.1 65
2017-07-22 20:00:00 18.6 16 Noroeste 26 Noroeste 0 1008.6 1.1 67
2017-07-22 19:00:00 18.9 16 Noroeste 32 Noroeste 0 1008.3 1.1 66
2017-07-22 18:00:00 20 18 Noroeste 35 Noroeste 0 1007.8 0.7 60
2017-07-22 17:00:00 20.4 18 Noroeste 35 Norte 0 1007.5 0.8 58
2017-07-22 16:00:00 20.8 19 Noroeste 32 Norte 0 1007.2 0.9 54
2017-07-22 15:00:00 20.4 20 Noroeste 35 Norte 0 1007.1 1.1 55
2017-07-22 14:00:00 20.3 17 Noroeste 32 Noroeste 0 1006.7 1.2 55
2017-07-22 13:00:00 19.8 15 Noroeste 30 Noroeste 0 1006.3 1.2 56
2017-07-22 12:00:00 18.5 20 Noroeste 32 Noroeste 0 1006 1.6 63
2017-07-22 11:00:00 17.8 17 Noroeste 28 Oeste 0 1005.5 1.5 76
2017-07-22 10:00:00 17.3 13 Noroeste 24 Oeste 0 1005.1 1.3 83
2017-07-22 09:00:00 16.7 5 Oeste 15 Sudoeste 0 1004.4 1 89
2017-07-22 08:00:00 16.1 0 Calma 18 Sudeste 0 1004 0.9 93
2017-07-22 07:00:00 15.9 5 Sur 32 Oeste 0.7 1003.8 0.4 95
2017-07-22 06:00:00 17.3 5 Oeste 18 Oeste 0 1003.4 0 89
2017-07-22 05:00:00 17.4 9 Oeste 18 Oeste 0 1003.1 -0.6 87
2017-07-22 04:00:00 17.6 8 Sudoeste 17 Oeste 0 1003.4 -0.2 87
2017-07-22 03:00:00 17.2 9 Sudoeste 13 Sudoeste 0 1003.4 -0.2 90
2017-07-22 02:00:00 17.2 5 Sudoeste 18 Sudoeste 0.1 1003.7 0 91
2017-07-22 01:00:00 18.4 13 Sudoeste 24 Sudoeste 0 1003.6 0.1 79
2017-07-22 00:00:00 18.6 17 Sudoeste 22 Sudoeste 0 1003.6 0.6 77
2017-07-21 23:00:00 18.9 16 Sudoeste 26 Sudoeste 0 1003.7 0.8 74
2017-07-21 22:00:00 19.5 12 Oeste 28 Sudoeste 0 1003.5 0.9 69
2017-07-21 21:00:00 20.6 5 Oeste 30 Oeste 0 1003 0.3 62
2017-07-21 20:00:00 22 20 Oeste 33 Oeste 0 1002.9 0 54
2017-07-21 19:00:00 21.9 21 Noroeste 37 Noroeste 0 1002.6 -0.4 58
2017-07-21 18:00:00 21.5 22 Noroeste 35 Noroeste 0 1002.7 -0.7 61
2017-07-21 17:00:00 22.6 16 Noroeste 35 Oeste 0 1002.9 -0.8 57
2017-07-21 16:00:00 22.8 15 Noroeste 33 Noroeste 0 1003 -0.6 56
2017-07-21 15:00:00 21.4 19 Noroeste 33 Norte 0 1003.4 -0.5 64
2017-07-21 14:00:00 22.1 16 Oeste 30 Oeste 0 1003.7 -0.3 56
2017-07-21 13:00:00 21.3 11 Sudoeste 24 Sudoeste 0 1003.6 -0.4 59
2017-07-21 12:00:00 19.9 11 Sudoeste 21 Oeste 0 1003.9 0.4 61
2017-07-21 11:00:00 18.7 8 Sudoeste 17 Sudoeste 0 1004 0.4 66
2017-07-21 10:00:00 17.5 6 Sur 26 Sur 0 1004 0.3 67
2017-07-21 09:00:00 14.6 9 Sur 15 Sudeste 0 1003.5 -0.4 80
2017-07-21 08:00:00 12.7 10 Sur 15 Sur 0 1003.6 -0.8 87
2017-07-21 07:00:00 12.2 5 Sur 28 Sur 0 1003.7 -1.2 88
2017-07-21 06:00:00 11.7 7 Sudeste 15 Sur 0 1003.9 -1.6 90
2017-07-21 05:00:00 11.6 7 Sur 15 Sur 0 1004.4 -1.5 91
2017-07-21 04:00:00 11.6 5 Sur 15 Sur 0 1004.9 -1.4 90
2017-07-21 03:00:00 12.3 6 Sur 11 Sudeste 0 1005.5 -0.9 87
2017-07-21 02:00:00 12.6 7 Sur 13 Sur 0 1005.9 -0.5 84
2017-07-21 01:00:00 14.7 0 Calma 4 Sur 0 1006.3 0 76
2017-07-21 00:00:00 15.1 2 Sur 9 Norte 0 1006.4 0.1 74
2017-07-20 23:00:00 16.3 6 Norte 21 Norte 0 1006.4 0.1 67
2017-07-20 22:00:00 16.8 12 Norte 22 Norte 0 1006.3 0 65
2017-07-20 21:00:00 17.9 14 Norte 28 Norte 0 1006.3 -0.4 61
2017-07-20 20:00:00 18.6 19 Norte 30 Norte 0 1006.3 -0.6 54
2017-07-20 19:00:00 19.3 19 Norte 30 Norte 0 1006.3 -0.9 52
2017-07-20 18:00:00 19.5 15 Norte 30 Norte 0 1006.7 -0.9 56
2017-07-20 17:00:00 19.8 18 Norte 30 Nordeste 0 1006.9 -0.8 58
2017-07-20 16:00:00 20.1 17 Norte 30 Noroeste 0 1007.2 -0.5 52
2017-07-20 15:00:00 20.2 18 Norte 30 Norte 0 1007.6 -0.3 57
2017-07-20 14:00:00 20.2 17 Norte 30 Norte 0 1007.7 -0.2 58
2017-07-20 13:00:00 19.6 14 Norte 26 Noroeste 0 1007.7 -0.2 58
2017-07-20 12:00:00 19.1 13 Norte 24 Norte 0 1007.9 0.1 57
2017-07-20 11:00:00 19 15 Nordeste 22 Nordeste 0 1007.9 0.4 54
2017-07-20 10:00:00 17.7 6 Norte 17 Norte 0 1007.9 0.8 68
2017-07-20 09:00:00 16 5 Sur 18 Sudeste 0 1007.8 0.9 81
2017-07-20 08:00:00 15.7 2 Noroeste 13 Noroeste 0 1007.5 0.7 80
2017-07-20 07:00:00 15.6 7 Noroeste 17 Noroeste 0 1007.1 0.3 82
2017-07-20 06:00:00 15.6 7 Noroeste 15 Noroeste 0 1006.9 -0.1 83
2017-07-20 05:00:00 15.2 0 Calma 13 Oeste 0 1006.8 -0.6 86
2017-07-20 04:00:00 15.1 0 Calma 8 Sudeste 0 1006.8 -0.5 87
2017-07-20 03:00:00 15.5 3 Oeste 11 Oeste 0 1007 -0.1 83
2017-07-20 02:00:00 15.5 4 Oeste 13 Oeste 0 1007.4 0.6 86
2017-07-20 01:00:00 16.3 3 Noroeste 13 Noroeste 0 1007.3 1.1 84
2017-07-20 00:00:00 16.8 3 Noroeste 17 Noroeste 0 1007.1 1.5 81
2017-07-19 23:00:00 17.2 9 Noroeste 26 Noroeste 0 1006.8 1.6 79
2017-07-19 22:00:00 17.8 11 Noroeste 24 Noroeste 0 1006.2 1.1 77
2017-07-19 21:00:00 18.2 11 Noroeste 26 Oeste 0 1005.6 1.1 76
2017-07-19 20:00:00 19.2 14 Noroeste 35 Norte 0 1005.2 1.1 67
2017-07-19 19:00:00 19 18 Noroeste 42 Oeste 0 1005.1 1.3 77
2017-07-19 18:00:00 18.9 24 Noroeste 37 Noroeste 0 1004.5 1.1 80
2017-07-19 17:00:00 19.5 21 Noroeste 37 Noroeste 0 1004.1 1 78
2017-07-19 16:00:00 19.7 26 Noroeste 42 Noroeste 0 1003.8 1 76
2017-07-19 15:00:00 20.3 20 Noroeste 35 Oeste 0 1003.4 1.2 76
2017-07-19 14:00:00 20 21 Oeste 33 Oeste 0 1003.1 1.3 77
2017-07-19 13:00:00 18.4 18 Noroeste 35 Noroeste 0.1 1002.8 1.9 88
2017-07-19 12:00:00 18.3 15 Oeste 30 Noroeste 0.3 1002.2 1.5 89
2017-07-19 11:00:00 18.1 14 Oeste 30 Oeste 0.9 1001.8 1.3 92
2017-07-19 10:00:00 20 15 Sudoeste 30 Sudoeste 0 1000.9 1 76
2017-07-19 09:00:00 18.6 5 Sur 21 Sur 0 1000.7 1.2 86
2017-07-19 08:00:00 18.2 13 Sudoeste 32 Sur 0 1000.5 1 85
2017-07-19 07:00:00 18.4 20 Sur 32 Sur 0 999.9 0.5 81
2017-07-19 06:00:00 18.7 24 Sur 41 Sudoeste 0 999.5 -0.1 79
2017-07-19 05:00:00 18.7 27 Sur 42 Sudoeste 0 999.5 -0.6 79
2017-07-19 04:00:00 19.2 23 Sudoeste 39 Sudoeste 0 999.4 -1.1 75
2017-07-19 03:00:00 19.3 19 Sur 41 Sudoeste 0 999.6 -1.1 78
2017-07-19 02:00:00 19.2 13 Sudoeste 30 Sudoeste 0 1000.1 -0.3 78
2017-07-19 01:00:00 19.1 9 Sur 28 Sudoeste 0 1000.5 0.3 80
2017-07-19 00:00:00 19.3 10 Oeste 30 Sur 0 1000.7 0.9 79